Charlestown, Ohio
Current Conditions -  °F | °C
As of 4:00 PM on Thursday 20 Nov 2014 (Local Time) from KPOV Reporting Station
Overcast Overcast  
Wind Chill: 12°   Ceiling: 4000
Heat Index: 25°   Visibility: 10mi
Dew Point:   Wind: 17mph
Humidity: 50%   Direction: 240°WSW
Pressure: 29.98"   Gusts: 28mph
Location:  41.1736°N, 81.1686°W
Report Text: KPOV 202100Z AUTO 24015G24KT 10SM BKN040 OVC047 M04/M13 A2998 RMK AO2 T10381129
Loading
Personal Weather Stations






























Interactive Weather Map New forecast layout! Learn more

10-Day Weather Forecast

Advertisements
Track Severe Weather on mobile